createdAt,value
2017-11-25T00:00:49.553Z,20.30
2017-11-25T00:03:16.471Z,21.00
2017-11-25T00:05:43.819Z,20.50
2017-11-25T00:08:11.064Z,19.80
2017-11-25T00:10:38.378Z,19.23
2017-11-25T00:13:05.271Z,22.60
2017-11-25T00:15:32.167Z,20.80
2017-11-25T00:17:59.090Z,21.50
2017-11-25T00:20:25.983Z,22.03
2017-11-25T00:22:52.872Z,21.60
2017-11-25T00:25:20.207Z,20.90
2017-11-25T00:27:47.100Z,23.20
2017-11-25T00:30:14.095Z,23.67
2017-11-25T00:32:40.979Z,21.30
2017-11-25T00:35:07.899Z,22.50
2017-11-25T00:37:35.179Z,22.63
2017-11-25T00:40:02.067Z,22.77
2017-11-25T00:42:29.037Z,21.00
2017-11-25T00:44:55.979Z,23.40
2017-11-25T00:47:22.866Z,23.87
2017-11-25T00:49:49.873Z,22.70
2017-11-25T00:52:16.757Z,22.63
2017-11-25T00:54:43.659Z,24.60
2017-11-25T00:57:10.634Z,24.10
2017-11-25T00:59:37.921Z,20.90
2017-11-25T01:02:04.913Z,23.17
2017-11-25T01:04:32.203Z,24.90
2017-11-25T01:06:59.111Z,22.77
2017-11-25T01:09:26.008Z,23.40
2017-11-25T01:11:53.018Z,24.33
2017-11-25T01:14:20.328Z,22.90
2017-11-25T01:16:47.309Z,24.23
2017-11-25T01:19:14.201Z,22.30
2017-11-25T01:21:41.201Z,21.97
2017-11-25T01:24:08.151Z,21.10
2017-11-25T01:26:35.498Z,25.77
2017-11-25T01:29:02.430Z,24.07
2017-11-25T01:31:29.314Z,25.43
2017-11-25T01:33:56.640Z,24.50
2017-11-25T01:36:23.540Z,25.90
2017-11-25T01:38:50.446Z,24.17
2017-11-25T01:41:17.777Z,23.60
2017-11-25T01:43:44.849Z,26.67
2017-11-25T01:46:11.758Z,25.83
2017-11-25T01:48:38.739Z,26.87
2017-11-25T01:51:06.039Z,24.47
2017-11-25T01:53:32.951Z,30.00
2017-11-25T01:56:00.260Z,24.63
2017-11-25T01:58:27.150Z,22.77
2017-11-25T02:00:54.467Z,27.43
2017-11-25T02:03:21.438Z,28.97
2017-11-25T02:05:48.327Z,30.50
2017-11-25T02:08:15.243Z,23.50
2017-11-25T02:10:42.588Z,26.97
2017-11-25T02:13:09.487Z,28.47
2017-11-25T02:15:36.422Z,26.53
2017-11-25T02:18:03.315Z,29.27
2017-11-25T02:20:30.218Z,26.43
2017-11-25T02:22:57.163Z,27.13
2017-11-25T02:25:24.082Z,27.10
2017-11-25T02:27:51.369Z,25.23
2017-11-25T02:30:18.270Z,25.80
2017-11-25T02:32:45.589Z,26.47
2017-11-25T02:35:12.484Z,25.20
2017-11-25T02:37:39.792Z,27.30
2017-11-25T02:40:06.706Z,32.50
2017-11-25T02:42:33.628Z,25.27
2017-11-25T02:45:00.554Z,26.13
2017-11-25T02:47:27.475Z,28.57
2017-11-25T02:49:54.367Z,25.90
2017-11-25T02:52:21.660Z,23.17
2017-11-25T02:54:48.576Z,26.70
2017-11-25T02:57:15.464Z,23.97
2017-11-25T02:59:42.371Z,24.13
2017-11-25T03:02:09.287Z,26.40
2017-11-25T03:04:36.195Z,22.80
2017-11-25T03:07:03.084Z,22.50
2017-11-25T03:09:30.399Z,22.70
2017-11-25T03:11:57.620Z,22.07
2017-11-25T03:14:24.511Z,23.53
2017-11-25T03:16:51.429Z,23.50
2017-11-25T03:19:18.352Z,22.00
2017-11-25T03:21:45.237Z,26.63
2017-11-25T03:24:12.123Z,24.40
2017-11-25T03:26:39.431Z,23.80
2017-11-25T03:29:06.324Z,24.83
2017-11-25T03:31:33.670Z,25.03
2017-11-25T03:34:00.612Z,25.60
2017-11-25T03:36:27.555Z,24.30
2017-11-25T03:38:54.501Z,27.67
2017-11-25T03:41:21.388Z,28.10
2017-11-25T03:43:48.400Z,24.97
2017-11-25T03:46:15.759Z,23.53
2017-11-25T03:48:43.038Z,25.07
2017-11-25T03:51:09.955Z,25.00
2017-11-25T03:53:37.245Z,30.17
2017-11-25T03:56:04.167Z,24.67
2017-11-25T03:58:31.515Z,25.80
2017-11-25T04:00:58.823Z,27.23
2017-11-25T04:03:26.057Z,25.10
2017-11-25T04:05:52.938Z,23.77
2017-11-25T04:08:19.850Z,24.80
2017-11-25T04:10:46.738Z,25.50
2017-11-25T04:13:13.698Z,24.80
2017-11-25T04:15:40.606Z,22.63
2017-11-25T04:18:07.539Z,25.57
2017-11-25T04:20:34.421Z,23.53
2017-11-25T04:23:01.319Z,24.17
2017-11-25T04:25:28.251Z,23.50
2017-11-25T04:27:55.526Z,25.27
2017-11-25T04:30:22.435Z,23.00
2017-11-25T04:32:49.747Z,25.10
2017-11-25T04:35:16.634Z,23.67
2017-11-25T04:37:43.984Z,22.20
2017-11-25T04:40:10.882Z,28.00
2017-11-25T04:42:37.775Z,26.17
2017-11-25T04:45:04.720Z,24.20
2017-11-25T04:47:31.673Z,28.03
2017-11-25T04:49:58.995Z,27.10
2017-11-25T04:52:26.212Z,25.07
2017-11-25T04:54:53.216Z,24.37
2017-11-25T04:57:20.131Z,23.30
2017-11-25T04:59:47.010Z,22.20
2017-11-25T05:02:14.068Z,24.40
2017-11-25T05:04:41.372Z,21.27
2017-11-25T05:07:08.290Z,26.60
2017-11-25T05:09:35.171Z,23.17
2017-11-25T05:12:02.112Z,22.57
2017-11-25T05:14:29.000Z,21.30
2017-11-25T05:16:55.887Z,22.37
2017-11-25T05:19:22.887Z,21.70
2017-11-25T05:21:49.778Z,22.53
2017-11-25T05:24:16.696Z,23.23
2017-11-25T05:26:44.009Z,20.93
2017-11-25T05:29:10.979Z,23.07
2017-11-25T05:31:37.927Z,22.53
2017-11-25T05:34:04.816Z,22.27
2017-11-25T05:36:31.734Z,21.00
2017-11-25T05:38:59.021Z,21.70
2017-11-25T05:41:26.020Z,23.57
2017-11-25T05:43:53.111Z,22.20
2017-11-25T05:46:19.990Z,20.13
2017-11-25T05:48:46.962Z,24.80
2017-11-25T05:51:13.907Z,23.60
2017-11-25T05:53:40.796Z,21.87
2017-11-25T05:56:07.799Z,21.37
2017-11-25T05:58:34.760Z,20.50
2017-11-25T06:01:02.079Z,21.83
2017-11-25T06:03:29.051Z,21.67
2017-11-25T06:05:55.969Z,23.93
2017-11-25T06:08:22.880Z,21.77
2017-11-25T06:10:49.794Z,20.90
2017-11-25T06:13:16.739Z,23.80
2017-11-25T06:15:43.651Z,23.50
2017-11-25T06:18:10.627Z,24.27
2017-11-25T06:20:37.542Z,21.50
2017-11-25T06:23:04.464Z,21.07
2017-11-25T06:25:31.350Z,20.47
2017-11-25T06:27:58.281Z,18.83
2017-11-25T06:30:25.172Z,22.17
2017-11-25T06:32:52.464Z,21.33
2017-11-25T06:35:19.383Z,19.40
2017-11-25T06:37:46.268Z,21.67
2017-11-25T06:40:13.184Z,18.80
2017-11-25T06:42:40.066Z,17.40
2017-11-25T06:45:07.041Z,18.67
2017-11-25T06:47:33.924Z,19.67
2017-11-25T06:50:00.835Z,19.10
2017-11-25T06:52:27.776Z,16.60
2017-11-25T06:54:54.666Z,17.73
2017-11-25T06:57:21.586Z,17.90
2017-11-25T06:59:48.887Z,17.10
2017-11-25T07:02:15.799Z,17.17
2017-11-25T07:04:42.715Z,14.87
2017-11-25T07:07:09.662Z,16.33
2017-11-25T07:09:36.598Z,15.70
2017-11-25T07:12:03.547Z,14.10
2017-11-25T07:14:30.464Z,12.40
2017-11-25T07:16:57.375Z,12.30
2017-11-25T07:19:24.738Z,11.43
2017-11-25T07:21:51.666Z,11.53
2017-11-25T07:24:19.042Z,12.33
2017-11-25T07:26:45.931Z,12.13
2017-11-25T07:29:12.857Z,9.17
2017-11-25T07:31:39.843Z,8.37
2017-11-25T07:34:07.195Z,8.53
2017-11-25T07:36:34.556Z,8.60
2017-11-25T07:39:01.442Z,6.07
2017-11-25T07:41:28.359Z,7.40
2017-11-25T07:43:55.637Z,6.83
2017-11-25T07:46:22.526Z,5.70
2017-11-25T07:48:49.442Z,4.57
2017-11-25T07:51:16.327Z,4.53
2017-11-25T07:53:43.211Z,4.07
2017-11-25T07:56:10.224Z,3.60
2017-11-25T07:58:37.114Z,3.80
2017-11-25T08:01:04.036Z,3.70
2017-11-25T08:03:31.371Z,3.30
2017-11-25T08:05:58.318Z,3.33
2017-11-25T08:08:25.257Z,3.03
2017-11-25T08:10:52.135Z,3.53
2017-11-25T08:13:19.482Z,3.53
2017-11-25T08:15:46.863Z,3.13
2017-11-25T08:18:13.866Z,3.60
2017-11-25T08:20:40.746Z,3.37
2017-11-25T08:23:07.664Z,3.30
2017-11-25T08:25:34.552Z,3.30
2017-11-25T08:28:01.547Z,3.60
2017-11-25T08:30:28.430Z,3.93
2017-11-25T08:32:55.384Z,5.10
2017-11-25T08:35:22.295Z,5.00
2017-11-25T08:37:49.572Z,3.73
2017-11-25T08:40:16.876Z,3.87
2017-11-25T08:42:43.845Z,4.07
2017-11-25T08:45:10.791Z,4.13
2017-11-25T08:47:38.103Z,4.27
2017-11-25T08:50:05.090Z,2.70
2017-11-25T08:52:32.038Z,1.90
2017-11-25T08:54:58.923Z,1.93
2017-11-25T08:57:25.826Z,1.87
2017-11-25T08:59:53.114Z,1.80
2017-11-25T09:02:20.130Z,1.90
2017-11-25T09:04:47.042Z,1.80
2017-11-25T09:07:13.963Z,2.20
2017-11-25T09:09:40.867Z,1.90
2017-11-25T09:12:07.811Z,2.13
2017-11-25T09:14:34.790Z,2.00
2017-11-25T09:17:02.065Z,1.93
2017-11-25T09:19:28.986Z,1.50
2017-11-25T09:21:56.291Z,2.00
2017-11-25T09:24:23.184Z,2.00
2017-11-25T09:26:50.482Z,2.37
2017-11-25T09:29:17.380Z,2.00
2017-11-25T09:31:44.699Z,2.27
2017-11-25T09:34:11.604Z,1.87
2017-11-25T09:36:38.491Z,2.17
2017-11-25T09:39:05.456Z,2.30
2017-11-25T09:41:32.360Z,2.70
2017-11-25T09:43:59.272Z,3.10
2017-11-25T09:46:26.571Z,3.77
2017-11-25T09:48:53.458Z,3.87
2017-11-25T09:51:20.808Z,4.10
2017-11-25T09:53:47.718Z,4.50
2017-11-25T09:56:14.606Z,4.90
2017-11-25T09:58:41.920Z,5.73
2017-11-25T10:01:08.818Z,4.83
2017-11-25T10:03:36.115Z,6.20
2017-11-25T10:06:03.002Z,7.37
2017-11-25T10:08:30.304Z,8.27
2017-11-25T10:10:57.291Z,7.50
2017-11-25T10:13:24.248Z,8.23
2017-11-25T10:15:51.547Z,8.70
2017-11-25T10:18:18.431Z,10.13
2017-11-25T10:20:45.390Z,10.37
2017-11-25T10:23:12.740Z,10.30
2017-11-25T10:25:39.654Z,9.10
2017-11-25T10:28:06.539Z,10.90
2017-11-25T10:30:33.819Z,7.80
2017-11-25T10:33:00.844Z,10.70
2017-11-25T10:35:28.194Z,8.50
2017-11-25T10:37:55.520Z,7.73
2017-11-25T10:40:22.412Z,7.53
2017-11-25T10:42:49.341Z,8.00
2017-11-25T10:45:16.665Z,8.30
2017-11-25T10:47:43.640Z,8.20
2017-11-25T10:50:10.595Z,8.20
2017-11-25T10:52:37.503Z,8.47
2017-11-25T10:55:04.383Z,6.87
2017-11-25T10:57:31.660Z,8.10
2017-11-25T10:59:58.579Z,9.30
2017-11-25T11:02:25.466Z,8.53
2017-11-25T11:04:52.642Z,9.40
2017-11-25T11:07:19.528Z,9.27
2017-11-25T11:09:46.883Z,7.40
2017-11-25T11:12:14.277Z,11.13
2017-11-25T11:14:41.175Z,10.33
2017-11-25T11:17:08.101Z,10.77
2017-11-25T11:19:35.014Z,10.20
2017-11-25T11:22:01.956Z,11.67
2017-11-25T11:24:28.831Z,9.23
2017-11-25T11:26:55.802Z,9.57
2017-11-25T11:29:22.749Z,9.53
2017-11-25T11:31:49.702Z,9.83
2017-11-25T11:34:16.659Z,11.07
2017-11-25T11:36:43.975Z,8.37
2017-11-25T11:39:10.862Z,9.13
2017-11-25T11:41:38.135Z,7.90
2017-11-25T11:44:05.059Z,10.30
2017-11-25T11:46:32.423Z,10.23
2017-11-25T11:48:59.706Z,10.43
2017-11-25T11:51:26.707Z,10.67
2017-11-25T11:53:54.063Z,10.50
2017-11-25T11:56:21.020Z,9.23
2017-11-25T11:58:48.385Z,9.03
2017-11-25T12:01:15.314Z,9.83
2017-11-25T12:03:42.267Z,8.83
2017-11-25T12:06:09.584Z,7.40
2017-11-25T12:08:36.556Z,7.60
2017-11-25T12:11:03.483Z,6.83
2017-11-25T12:13:30.459Z,7.60
2017-11-25T12:15:57.439Z,7.10
2017-11-25T12:18:24.326Z,8.03
2017-11-25T12:20:51.337Z,8.10
2017-11-25T12:23:19.052Z,7.07
2017-11-25T12:25:46.103Z,8.83
2017-11-25T12:28:13.004Z,9.10
2017-11-25T12:30:39.893Z,9.67
2017-11-25T12:33:06.861Z,7.47
2017-11-25T12:35:34.134Z,6.43
2017-11-25T12:38:01.019Z,6.47
2017-11-25T12:40:27.991Z,6.47
2017-11-25T12:42:54.941Z,6.30
2017-11-25T12:45:22.343Z,6.13
2017-11-25T12:47:49.339Z,5.00
2017-11-25T12:50:16.219Z,5.90
2017-11-25T12:52:43.179Z,4.70
2017-11-25T12:55:10.174Z,2.30
2017-11-25T12:57:37.071Z,1.60
2017-11-25T13:00:03.952Z,2.20
2017-11-25T13:02:30.863Z,2.27
2017-11-25T13:04:57.755Z,1.87
2017-11-25T13:07:24.716Z,2.00
2017-11-25T13:09:52.109Z,1.60
2017-11-25T13:12:18.986Z,1.60
2017-11-25T13:14:45.875Z,1.60
2017-11-25T13:17:13.185Z,1.53
2017-11-25T13:19:40.161Z,1.43
2017-11-25T13:22:07.103Z,1.63
2017-11-25T13:24:34.034Z,1.50
2017-11-25T13:27:00.951Z,1.50
2017-11-25T13:29:27.866Z,1.10
2017-11-25T13:31:55.190Z,1.60
2017-11-25T13:34:22.076Z,1.80
2017-11-25T13:36:48.992Z,2.07
2017-11-25T13:39:16.302Z,1.90
2017-11-25T13:41:43.300Z,1.70
2017-11-25T13:44:10.652Z,2.10
2017-11-25T13:46:38.002Z,2.43
2017-11-25T13:49:04.903Z,2.10
2017-11-25T13:51:31.785Z,2.40
2017-11-25T13:53:58.703Z,2.33
2017-11-25T13:56:25.599Z,2.67
2017-11-25T13:58:52.935Z,3.23
2017-11-25T14:01:19.887Z,2.70
2017-11-25T14:03:46.831Z,2.90
2017-11-25T14:06:13.763Z,2.90
2017-11-25T14:08:40.683Z,2.80
2017-11-25T14:11:07.574Z,3.23
2017-11-25T14:13:34.861Z,3.37
2017-11-25T14:16:01.799Z,3.93
2017-11-25T14:18:28.691Z,4.33
2017-11-25T14:20:55.663Z,3.63
2017-11-25T14:23:23.063Z,4.07
2017-11-25T14:25:49.957Z,5.50
2017-11-25T14:28:16.955Z,4.77
2017-11-25T14:30:43.870Z,4.90
2017-11-25T14:33:11.155Z,5.00
2017-11-25T14:35:38.038Z,4.60
2017-11-25T14:38:05.013Z,5.13
2017-11-25T14:40:32.288Z,5.40
2017-11-25T14:42:59.324Z,5.47
2017-11-25T14:45:26.650Z,5.27
2017-11-25T14:47:53.531Z,4.13
2017-11-25T14:50:20.810Z,4.40
2017-11-25T14:52:47.741Z,3.60
2017-11-25T14:55:14.657Z,3.80
2017-11-25T14:57:41.558Z,3.60
2017-11-25T15:00:08.474Z,3.53
2017-11-25T15:02:35.437Z,4.07
2017-11-25T15:05:02.342Z,3.00
2017-11-25T15:07:29.658Z,3.47
2017-11-25T15:09:56.541Z,3.97
2017-11-25T15:12:23.511Z,4.30
2017-11-25T15:14:50.449Z,3.70
2017-11-25T15:17:17.834Z,4.03
2017-11-25T15:19:44.724Z,4.17
2017-11-25T15:22:11.648Z,4.30
2017-11-25T15:24:38.531Z,4.50
2017-11-25T15:27:05.835Z,5.00
2017-11-25T15:29:32.746Z,5.50
2017-11-25T15:31:59.634Z,5.37
2017-11-25T15:34:26.531Z,5.37
2017-11-25T15:36:53.842Z,5.30
2017-11-25T15:39:20.726Z,6.30
2017-11-25T15:41:48.167Z,6.50
2017-11-25T15:44:15.122Z,5.70
2017-11-25T15:46:42.471Z,7.33
2017-11-25T15:49:09.354Z,6.50
2017-11-25T15:51:36.274Z,6.40
2017-11-25T15:54:03.643Z,6.03
2017-11-25T15:56:30.975Z,6.50
2017-11-25T15:58:57.887Z,7.63
2017-11-25T16:01:24.794Z,7.67
2017-11-25T16:03:52.068Z,4.87
2017-11-25T16:06:18.987Z,3.80
2017-11-25T16:08:46.278Z,4.77
2017-11-25T16:11:13.155Z,4.53
2017-11-25T16:13:40.071Z,5.20
2017-11-25T16:16:06.959Z,3.90
2017-11-25T16:18:33.929Z,5.40
2017-11-25T16:21:00.885Z,4.67
2017-11-25T16:23:27.778Z,5.60
2017-11-25T16:25:54.684Z,5.30
2017-11-25T16:28:21.604Z,5.73
2017-11-25T16:30:48.887Z,4.77
2017-11-25T16:33:15.774Z,3.80
2017-11-25T16:35:42.688Z,5.00
2017-11-25T16:38:09.576Z,4.70
2017-11-25T16:40:36.941Z,5.37
2017-11-25T16:43:04.275Z,4.77
2017-11-25T16:45:31.207Z,5.30
2017-11-25T16:48:10.194Z,4.83
2017-11-25T16:50:37.098Z,4.50
2017-11-25T16:53:03.987Z,5.00
2017-11-25T16:55:30.908Z,5.37
2017-11-25T16:57:58.233Z,5.50
2017-11-25T17:00:25.203Z,5.30
2017-11-25T17:02:52.100Z,6.93
2017-11-25T17:05:19.014Z,7.50
2017-11-25T17:07:46.291Z,7.27
2017-11-25T17:10:13.278Z,7.17
2017-11-25T17:12:40.242Z,6.90
2017-11-25T17:15:07.199Z,7.57
2017-11-25T17:17:34.502Z,7.67
2017-11-25T17:20:01.424Z,9.07
2017-11-25T17:22:28.404Z,8.87
2017-11-25T17:24:55.304Z,10.53
2017-11-25T17:27:22.637Z,9.50
2017-11-25T17:29:49.585Z,9.97
2017-11-25T17:32:16.528Z,9.23
2017-11-25T17:34:43.475Z,9.33
2017-11-25T17:37:10.427Z,9.10
2017-11-25T17:39:37.706Z,8.47
2017-11-25T17:42:04.613Z,8.20
2017-11-25T17:44:31.543Z,8.60
2017-11-25T17:46:58.532Z,8.57
2017-11-25T17:49:25.818Z,8.10
2017-11-25T17:51:52.839Z,7.90
2017-11-25T17:54:19.769Z,6.70
2017-11-25T17:56:46.725Z,7.17
2017-11-25T17:59:14.067Z,7.13
2017-11-25T18:01:40.961Z,6.90
2017-11-25T18:04:07.875Z,7.40
2017-11-25T18:06:35.175Z,7.37
2017-11-25T18:09:02.060Z,7.73
2017-11-25T18:11:29.007Z,7.93
2017-11-25T18:13:56.370Z,8.40
2017-11-25T18:16:23.719Z,7.43
2017-11-25T18:18:50.706Z,8.37
2017-11-25T18:21:17.624Z,7.57
2017-11-25T18:23:44.965Z,7.57
2017-11-25T18:26:11.935Z,6.70
2017-11-25T18:28:39.250Z,8.17
2017-11-25T18:31:06.261Z,7.00
2017-11-25T18:33:33.265Z,8.00
2017-11-25T18:36:00.211Z,6.93
2017-11-25T18:38:27.522Z,7.70
2017-11-25T18:40:54.427Z,7.43
2017-11-25T18:43:21.763Z,7.23
2017-11-25T18:45:48.711Z,7.03
2017-11-25T18:48:15.659Z,7.90
2017-11-25T18:50:42.571Z,7.40
2017-11-25T18:53:09.555Z,7.67
2017-11-25T18:55:36.442Z,7.73
2017-11-25T18:58:03.580Z,6.60
2017-11-25T19:00:30.495Z,7.63
2017-11-25T19:02:57.776Z,6.73
2017-11-25T19:05:24.691Z,7.50
2017-11-25T19:07:51.606Z,7.00
2017-11-25T19:10:18.525Z,7.50
2017-11-25T19:12:45.432Z,7.53
2017-11-25T19:15:12.335Z,7.43
2017-11-25T19:17:39.366Z,8.10
2017-11-25T19:20:06.301Z,7.60
2017-11-25T19:22:33.218Z,7.97
2017-11-25T19:25:00.130Z,8.27
2017-11-25T19:27:27.102Z,8.70
2017-11-25T19:29:54.058Z,7.33
2017-11-25T19:32:20.998Z,8.20
2017-11-25T19:34:47.914Z,9.00
2017-11-25T19:37:14.911Z,8.17
2017-11-25T19:39:42.252Z,8.53
2017-11-25T19:42:09.566Z,9.43
2017-11-25T19:44:36.481Z,9.40
2017-11-25T19:47:03.803Z,7.93
2017-11-25T19:49:30.756Z,7.83
2017-11-25T19:51:57.753Z,8.43
2017-11-25T19:54:24.750Z,7.70
2017-11-25T19:56:51.662Z,8.70
2017-11-25T19:59:18.581Z,8.73
2017-11-25T20:01:45.503Z,7.77
2017-11-25T20:04:12.816Z,8.37
2017-11-25T20:06:39.710Z,9.13
2017-11-25T20:09:07.008Z,8.50
2017-11-25T20:11:33.970Z,9.20
2017-11-25T20:14:00.934Z,8.13
2017-11-25T20:16:27.878Z,8.70
2017-11-25T20:18:54.887Z,7.70
2017-11-25T20:21:21.775Z,8.40
2017-11-25T20:23:48.667Z,8.17
2017-11-25T20:26:15.662Z,8.23
2017-11-25T20:28:42.614Z,7.83
2017-11-25T20:31:09.559Z,8.30
2017-11-25T20:33:36.894Z,8.87
2017-11-25T20:36:03.863Z,8.20
2017-11-25T20:38:31.154Z,8.47
2017-11-25T20:40:58.168Z,8.57
2017-11-25T20:43:25.087Z,7.80
2017-11-25T20:45:52.055Z,8.47
2017-11-25T20:48:18.972Z,8.57
2017-11-25T20:50:45.947Z,7.80
2017-11-25T20:53:12.895Z,8.47
2017-11-25T20:55:39.815Z,5.80
2017-11-25T20:58:06.803Z,7.50
2017-11-25T21:00:34.076Z,3.70
2017-11-25T21:03:00.991Z,2.90
2017-11-25T21:05:27.915Z,3.20
2017-11-25T21:07:54.891Z,2.50
2017-11-25T21:10:22.248Z,3.23
2017-11-25T21:12:49.579Z,2.97
2017-11-25T21:15:16.463Z,2.97
2017-11-25T21:17:43.793Z,3.27
2017-11-25T21:20:10.703Z,3.23
2017-11-25T21:22:37.591Z,3.13
2017-11-25T21:25:04.940Z,3.07
2017-11-25T21:27:31.819Z,3.37
2017-11-25T21:29:58.702Z,3.40
2017-11-25T21:32:25.614Z,4.60
2017-11-25T21:34:52.495Z,3.63
2017-11-25T21:37:19.513Z,4.30
2017-11-25T21:39:46.399Z,4.03
2017-11-25T21:42:13.359Z,4.50
2017-11-25T21:44:40.275Z,3.90
2017-11-25T21:47:07.253Z,4.57
2017-11-25T21:49:34.199Z,5.20
2017-11-25T21:52:01.148Z,5.30
2017-11-25T21:54:28.092Z,5.10
2017-11-25T21:56:55.016Z,6.60
2017-11-25T21:59:22.000Z,7.00
2017-11-25T22:01:49.285Z,7.37
2017-11-25T22:04:16.167Z,8.50
2017-11-25T22:06:43.078Z,9.90
2017-11-25T22:09:09.963Z,9.60
2017-11-25T22:11:36.924Z,10.27
2017-11-25T22:14:03.826Z,9.53
2017-11-25T22:16:30.779Z,10.53
2017-11-25T22:18:57.759Z,11.47
2017-11-25T22:21:24.650Z,10.97
2017-11-25T22:23:51.653Z,11.73
2017-11-25T22:26:18.607Z,12.03
2017-11-25T22:28:45.930Z,11.10
2017-11-25T22:31:12.824Z,12.60
2017-11-25T22:33:40.166Z,9.70
2017-11-25T22:36:07.478Z,10.47
2017-11-25T22:38:34.459Z,9.87
2017-11-25T22:41:01.380Z,8.70
2017-11-25T22:43:28.263Z,9.07
2017-11-25T22:45:55.594Z,10.00
2017-11-25T22:48:22.571Z,9.00
2017-11-25T22:50:49.919Z,9.77
2017-11-25T22:53:17.279Z,8.93
2017-11-25T22:55:44.623Z,9.10
2017-11-25T22:58:11.566Z,8.40
2017-11-25T23:00:38.455Z,8.20
2017-11-25T23:03:05.376Z,8.47
2017-11-25T23:05:32.684Z,6.40
2017-11-25T23:07:59.659Z,6.93
2017-11-25T23:10:26.554Z,5.50
2017-11-25T23:12:53.559Z,5.27
2017-11-25T23:15:20.447Z,4.37
2017-11-25T23:17:47.373Z,5.00
2017-11-25T23:20:14.266Z,4.27
2017-11-25T23:22:41.234Z,4.40
2017-11-25T23:25:08.184Z,3.93
2017-11-25T23:27:35.087Z,4.67
2017-11-25T23:30:01.978Z,4.93
2017-11-25T23:32:28.922Z,4.23
2017-11-25T23:34:55.798Z,4.80
2017-11-25T23:37:22.748Z,4.07
2017-11-25T23:39:49.660Z,3.93
2017-11-25T23:42:16.570Z,3.63
2017-11-25T23:44:43.551Z,4.10
2017-11-25T23:47:10.440Z,3.80
2017-11-25T23:49:37.349Z,3.40
2017-11-25T23:52:04.697Z,3.57
2017-11-25T23:54:31.651Z,3.70
2017-11-25T23:56:58.955Z,4.27
2017-11-25T23:59:25.867Z,4.00
